sensor_id;sensor_type;location;lat;lon;timestamp;temperature;humidity
46490;DHT22;32204;49.160;8.580;2022-07-29T00:02:08;22.80;99.90
46490;DHT22;32204;49.160;8.580;2022-07-29T00:04:35;22.80;99.90
46490;DHT22;32204;49.160;8.580;2022-07-29T00:07:00;22.70;99.90
46490;DHT22;32204;49.160;8.580;2022-07-29T00:09:26;22.70;99.90
46490;DHT22;32204;49.160;8.580;2022-07-29T00:11:52;22.70;99.90
46490;DHT22;32204;49.160;8.580;2022-07-29T00:14:19;22.60;1.00
46490;DHT22;32204;49.160;8.580;2022-07-29T00:16:44;22.50;1.00
46490;DHT22;32204;49.160;8.580;2022-07-29T00:19:10;22.40;1.00
46490;DHT22;32204;49.160;8.580;2022-07-29T00:21:35;22.40;1.00
46490;DHT22;32204;49.160;8.580;2022-07-29T00:24:01;22.40;1.00
46490;DHT22;32204;49.160;8.580;2022-07-29T00:26:26;22.50;1.00
46490;DHT22;32204;49.160;8.580;2022-07-29T00:28:57;22.60;1.00
46490;DHT22;32204;49.160;8.580;2022-07-29T00:31:23;22.70;1.00
46490;DHT22;32204;49.160;8.580;2022-07-29T00:33:49;22.80;1.00
46490;DHT22;32204;49.160;8.580;2022-07-29T00:36:14;22.70;1.00
46490;DHT22;32204;49.160;8.580;2022-07-29T00:38:40;22.50;1.00
46490;DHT22;32204;49.160;8.580;2022-07-29T00:41:09;22.50;1.00
46490;DHT22;32204;49.160;8.580;2022-07-29T00:43:35;22.40;1.00
46490;DHT22;32204;49.160;8.580;2022-07-29T00:46:00;22.40;1.00
46490;DHT22;32204;49.160;8.580;2022-07-29T00:48:27;22.50;1.00
46490;DHT22;32204;49.160;8.580;2022-07-29T00:50:52;22.40;1.00
46490;DHT22;32204;49.160;8.580;2022-07-29T00:53:19;22.30;23.30
46490;DHT22;32204;49.160;8.580;2022-07-29T00:55:45;22.40;3.50
46490;DHT22;32204;49.160;8.580;2022-07-29T00:58:12;22.20;17.70
46490;DHT22;32204;49.160;8.580;2022-07-29T01:00:39;22.10;91.50
46490;DHT22;32204;49.160;8.580;2022-07-29T01:03:06;22.10;95.20
46490;DHT22;32204;49.160;8.580;2022-07-29T01:05:32;21.90;99.90
46490;DHT22;32204;49.160;8.580;2022-07-29T01:07:59;21.80;99.90
46490;DHT22;32204;49.160;8.580;2022-07-29T01:10:26;21.60;99.90
46490;DHT22;32204;49.160;8.580;2022-07-29T01:12:53;21.50;99.90
46490;DHT22;32204;49.160;8.580;2022-07-29T01:15:20;21.50;99.90
46490;DHT22;32204;49.160;8.580;2022-07-29T01:31:42;21.40;99.90
46490;DHT22;32204;49.160;8.580;2022-07-29T01:34:17;21.40;99.90
46490;DHT22;32204;49.160;8.580;2022-07-29T01:36:55;21.40;99.90
46490;DHT22;32204;49.160;8.580;2022-07-29T01:39:41;21.40;99.90
46490;DHT22;32204;49.160;8.580;2022-07-29T01:42:14;21.30;99.90
46490;DHT22;32204;49.160;8.580;2022-07-29T01:47:20;21.30;99.90
46490;DHT22;32204;49.160;8.580;2022-07-29T01:49:50;21.40;99.90
46490;DHT22;32204;49.160;8.580;2022-07-29T01:52:34;21.50;99.90
46490;DHT22;32204;49.160;8.580;2022-07-29T01:55:07;21.40;99.90
46490;DHT22;32204;49.160;8.580;2022-07-29T01:57:35;21.40;99.90
46490;DHT22;32204;49.160;8.580;2022-07-29T02:00:04;21.40;99.90
46490;DHT22;32204;49.160;8.580;2022-07-29T02:02:32;21.40;99.90
46490;DHT22;32204;49.160;8.580;2022-07-29T02:05:00;21.40;99.90
46490;DHT22;32204;49.160;8.580;2022-07-29T02:07:29;21.30;99.90
46490;DHT22;32204;49.160;8.580;2022-07-29T02:09:57;21.30;99.90
46490;DHT22;32204;49.160;8.580;2022-07-29T02:12:24;21.30;99.90
46490;DHT22;32204;49.160;8.580;2022-07-29T02:14:52;21.30;99.90
46490;DHT22;32204;49.160;8.580;2022-07-29T02:17:33;21.40;99.90
46490;DHT22;32204;49.160;8.580;2022-07-29T02:20:02;21.30;99.90
46490;DHT22;32204;49.160;8.580;2022-07-29T02:22:30;21.20;99.90
46490;DHT22;32204;49.160;8.580;2022-07-29T02:24:58;21.20;99.90
46490;DHT22;32204;49.160;8.580;2022-07-29T02:27:25;21.20;99.90
46490;DHT22;32204;49.160;8.580;2022-07-29T02:29:53;21.20;99.90
46490;DHT22;32204;49.160;8.580;2022-07-29T02:32:21;21.20;99.90
46490;DHT22;32204;49.160;8.580;2022-07-29T02:34:49;21.30;99.90
46490;DHT22;32204;49.160;8.580;2022-07-29T02:37:16;21.30;99.90
46490;DHT22;32204;49.160;8.580;2022-07-29T02:39:43;21.30;99.90
46490;DHT22;32204;49.160;8.580;2022-07-29T02:42:14;21.30;99.90
46490;DHT22;32204;49.160;8.580;2022-07-29T02:44:40;21.20;99.90
46490;DHT22;32204;49.160;8.580;2022-07-29T02:47:18;21.20;99.90
46490;DHT22;32204;49.160;8.580;2022-07-29T02:52:26;21.00;99.90
46490;DHT22;32204;49.160;8.580;2022-07-29T02:55:00;21.00;99.90
46490;DHT22;32204;49.160;8.580;2022-07-29T02:57:34;20.90;99.90
46490;DHT22;32204;49.160;8.580;2022-07-29T03:00:05;21.00;99.90
46490;DHT22;32204;49.160;8.580;2022-07-29T03:02:39;21.00;99.90
46490;DHT22;32204;49.160;8.580;2022-07-29T03:05:08;21.10;99.90
46490;DHT22;32204;49.160;8.580;2022-07-29T03:07:35;21.10;99.90
46490;DHT22;32204;49.160;8.580;2022-07-29T03:10:03;21.20;99.90
46490;DHT22;32204;49.160;8.580;2022-07-29T03:12:30;21.20;99.90
46490;DHT22;32204;49.160;8.580;2022-07-29T03:14:57;21.10;99.90
46490;DHT22;32204;49.160;8.580;2022-07-29T03:17:23;21.10;99.90
46490;DHT22;32204;49.160;8.580;2022-07-29T03:19:49;21.10;99.90
46490;DHT22;32204;49.160;8.580;2022-07-29T03:22:15;21.10;99.90
46490;DHT22;32204;49.160;8.580;2022-07-29T03:24:41;21.00;99.90
46490;DHT22;32204;49.160;8.580;2022-07-29T03:27:06;21.00;99.90
46490;DHT22;32204;49.160;8.580;2022-07-29T03:29:32;21.00;99.90
46490;DHT22;32204;49.160;8.580;2022-07-29T03:31:58;21.10;99.90
46490;DHT22;32204;49.160;8.580;2022-07-29T03:34:24;21.10;99.90
46490;DHT22;32204;49.160;8.580;2022-07-29T03:36:49;21.00;99.90
46490;DHT22;32204;49.160;8.580;2022-07-29T03:39:22;20.90;99.90
46490;DHT22;32204;49.160;8.580;2022-07-29T03:41:49;20.80;99.90
46490;DHT22;32204;49.160;8.580;2022-07-29T03:44:18;20.90;99.90
46490;DHT22;32204;49.160;8.580;2022-07-29T03:46:47;20.90;99.90
46490;DHT22;32204;49.160;8.580;2022-07-29T03:49:15;20.90;99.90
46490;DHT22;32204;49.160;8.580;2022-07-29T03:51:42;21.00;99.90
46490;DHT22;32204;49.160;8.580;2022-07-29T03:54:08;21.00;99.90
46490;DHT22;32204;49.160;8.580;2022-07-29T03:56:38;20.90;99.90
46490;DHT22;32204;49.160;8.580;2022-07-29T03:59:04;20.90;99.90
46490;DHT22;32204;49.160;8.580;2022-07-29T04:01:32;20.90;99.90
46490;DHT22;32204;49.160;8.580;2022-07-29T04:04:00;20.90;99.90
46490;DHT22;32204;49.160;8.580;2022-07-29T04:06:26;20.90;99.90
46490;DHT22;32204;49.160;8.580;2022-07-29T04:08:51;20.90;99.90
46490;DHT22;32204;49.160;8.580;2022-07-29T04:11:17;20.90;99.90
46490;DHT22;32204;49.160;8.580;2022-07-29T04:13:43;20.80;1.00
46490;DHT22;32204;49.160;8.580;2022-07-29T04:16:08;21.00;99.90
46490;DHT22;32204;49.160;8.580;2022-07-29T04:18:34;21.10;99.90
46490;DHT22;32204;49.160;8.580;2022-07-29T04:21:00;21.20;99.90
46490;DHT22;32204;49.160;8.580;2022-07-29T04:23:27;21.30;99.90
46490;DHT22;32204;49.160;8.580;2022-07-29T04:25:54;21.40;99.90
46490;DHT22;32204;49.160;8.580;2022-07-29T04:28:20;21.50;99.90
46490;DHT22;32204;49.160;8.580;2022-07-29T04:30:45;21.50;99.90
46490;DHT22;32204;49.160;8.580;2022-07-29T04:33:11;21.40;99.90
46490;DHT22;32204;49.160;8.580;2022-07-29T04:35:37;21.20;99.90
46490;DHT22;32204;49.160;8.580;2022-07-29T04:38:05;21.10;99.90
46490;DHT22;32204;49.160;8.580;2022-07-29T04:40:31;21.10;99.90
46490;DHT22;32204;49.160;8.580;2022-07-29T04:42:58;21.20;99.90
46490;DHT22;32204;49.160;8.580;2022-07-29T04:45:24;21.20;99.90
46490;DHT22;32204;49.160;8.580;2022-07-29T04:47:50;21.10;99.90
46490;DHT22;32204;49.160;8.580;2022-07-29T04:50:15;20.90;1.00
46490;DHT22;32204;49.160;8.580;2022-07-29T04:52:42;20.90;1.00
46490;DHT22;32204;49.160;8.580;2022-07-29T04:55:07;20.90;99.90
46490;DHT22;32204;49.160;8.580;2022-07-29T04:57:33;21.00;99.90
46490;DHT22;32204;49.160;8.580;2022-07-29T04:59:59;21.10;99.90
46490;DHT22;32204;49.160;8.580;2022-07-29T05:02:25;21.20;99.90
46490;DHT22;32204;49.160;8.580;2022-07-29T05:04:51;21.40;99.90
46490;DHT22;32204;49.160;8.580;2022-07-29T05:07:16;21.90;99.90
46490;DHT22;32204;49.160;8.580;2022-07-29T05:09:42;22.80;99.90
46490;DHT22;32204;49.160;8.580;2022-07-29T05:12:08;23.20;99.90
46490;DHT22;32204;49.160;8.580;2022-07-29T05:14:33;23.80;70.80
46490;DHT22;32204;49.160;8.580;2022-07-29T05:16:59;24.80;1.00
46490;DHT22;32204;49.160;8.580;2022-07-29T05:19:25;25.60;1.00
46490;DHT22;32204;49.160;8.580;2022-07-29T05:21:50;26.00;99.90
46490;DHT22;32204;49.160;8.580;2022-07-29T05:24:16;25.90;99.90
46490;DHT22;32204;49.160;8.580;2022-07-29T05:26:42;25.20;99.90
46490;DHT22;32204;49.160;8.580;2022-07-29T05:29:08;24.50;1.00
46490;DHT22;32204;49.160;8.580;2022-07-29T05:31:34;24.00;1.00
46490;DHT22;32204;49.160;8.580;2022-07-29T05:34:00;24.20;1.00
46490;DHT22;32204;49.160;8.580;2022-07-29T05:36:25;24.30;1.00
46490;DHT22;32204;49.160;8.580;2022-07-29T05:38:51;24.40;1.00
46490;DHT22;32204;49.160;8.580;2022-07-29T05:41:20;25.80;1.00
46490;DHT22;32204;49.160;8.580;2022-07-29T05:43:46;27.50;99.90
46490;DHT22;32204;49.160;8.580;2022-07-29T05:46:12;27.70;99.90
46490;DHT22;32204;49.160;8.580;2022-07-29T05:48:39;27.10;99.90
46490;DHT22;32204;49.160;8.580;2022-07-29T05:51:05;26.70;99.90
46490;DHT22;32204;49.160;8.580;2022-07-29T05:53:31;27.70;98.00
46490;DHT22;32204;49.160;8.580;2022-07-29T05:55:56;27.40;99.90
46490;DHT22;32204;49.160;8.580;2022-07-29T05:58:22;27.50;99.90
46490;DHT22;32204;49.160;8.580;2022-07-29T06:00:48;28.80;99.90
46490;DHT22;32204;49.160;8.580;2022-07-29T06:03:14;28.30;90.50
46490;DHT22;32204;49.160;8.580;2022-07-29T06:05:40;27.20;64.50
46490;DHT22;32204;49.160;8.580;2022-07-29T06:08:05;26.20;99.90
46490;DHT22;32204;49.160;8.580;2022-07-29T06:10:34;25.60;43.50
46490;DHT22;32204;49.160;8.580;2022-07-29T06:12:59;25.20;99.90
46490;DHT22;32204;49.160;8.580;2022-07-29T06:15:25;25.00;1.00
46490;DHT22;32204;49.160;8.580;2022-07-29T06:17:51;26.20;1.00
46490;DHT22;32204;49.160;8.580;2022-07-29T06:20:18;27.90;1.00
46490;DHT22;32204;49.160;8.580;2022-07-29T06:22:44;29.10;1.00
46490;DHT22;32204;49.160;8.580;2022-07-29T06:25:09;28.80;99.90
46490;DHT22;32204;49.160;8.580;2022-07-29T06:27:35;29.00;1.00
46490;DHT22;32204;49.160;8.580;2022-07-29T06:30:02;29.10;99.90
46490;DHT22;32204;49.160;8.580;2022-07-29T06:32:28;27.30;99.90
46490;DHT22;32204;49.160;8.580;2022-07-29T06:34:53;26.10;1.00
46490;DHT22;32204;49.160;8.580;2022-07-29T06:37:19;25.40;99.90
46490;DHT22;32204;49.160;8.580;2022-07-29T06:39:45;25.40;99.90
46490;DHT22;32204;49.160;8.580;2022-07-29T06:42:10;26.00;99.90
46490;DHT22;32204;49.160;8.580;2022-07-29T06:44:36;25.30;99.90
46490;DHT22;32204;49.160;8.580;2022-07-29T06:47:02;25.50;1.00
46490;DHT22;32204;49.160;8.580;2022-07-29T06:49:28;25.60;99.90
46490;DHT22;32204;49.160;8.580;2022-07-29T06:51:54;25.10;99.90
46490;DHT22;32204;49.160;8.580;2022-07-29T06:54:20;25.30;99.90
46490;DHT22;32204;49.160;8.580;2022-07-29T06:56:46;25.30;99.90
46490;DHT22;32204;49.160;8.580;2022-07-29T06:59:12;25.40;99.90
46490;DHT22;32204;49.160;8.580;2022-07-29T07:01:39;25.10;99.90
46490;DHT22;32204;49.160;8.580;2022-07-29T07:04:06;25.00;99.90
46490;DHT22;32204;49.160;8.580;2022-07-29T07:06:32;25.20;99.90
46490;DHT22;32204;49.160;8.580;2022-07-29T07:08:57;25.30;1.00
46490;DHT22;32204;49.160;8.580;2022-07-29T07:11:23;25.40;1.00
46490;DHT22;32204;49.160;8.580;2022-07-29T07:13:48;25.30;1.00
46490;DHT22;32204;49.160;8.580;2022-07-29T07:16:14;25.40;1.00
46490;DHT22;32204;49.160;8.580;2022-07-29T07:18:40;25.60;99.90
46490;DHT22;32204;49.160;8.580;2022-07-29T07:21:06;27.60;99.90
46490;DHT22;32204;49.160;8.580;2022-07-29T07:23:31;29.20;99.90
46490;DHT22;32204;49.160;8.580;2022-07-29T07:25:57;29.80;99.90
46490;DHT22;32204;49.160;8.580;2022-07-29T07:28:23;30.30;99.90
46490;DHT22;32204;49.160;8.580;2022-07-29T07:30:48;29.00;36.50
46490;DHT22;32204;49.160;8.580;2022-07-29T07:33:14;28.00;99.90
46490;DHT22;32204;49.160;8.580;2022-07-29T07:35:41;27.60;99.90
46490;DHT22;32204;49.160;8.580;2022-07-29T07:38:07;27.20;1.00
46490;DHT22;32204;49.160;8.580;2022-07-29T07:40:33;26.90;99.90
46490;DHT22;32204;49.160;8.580;2022-07-29T07:42:58;26.60;99.90
46490;DHT22;32204;49.160;8.580;2022-07-29T07:45:24;26.10;99.90
46490;DHT22;32204;49.160;8.580;2022-07-29T07:47:50;26.20;1.00
46490;DHT22;32204;49.160;8.580;2022-07-29T07:50:15;26.20;31.10
46490;DHT22;32204;49.160;8.580;2022-07-29T07:52:47;26.50;99.90
46490;DHT22;32204;49.160;8.580;2022-07-29T07:55:14;26.50;1.00
46490;DHT22;32204;49.160;8.580;2022-07-29T07:57:40;26.30;1.00
46490;DHT22;32204;49.160;8.580;2022-07-29T08:00:08;25.90;1.00
46490;DHT22;32204;49.160;8.580;2022-07-29T08:02:33;25.90;99.90
46490;DHT22;32204;49.160;8.580;2022-07-29T08:04:59;25.80;99.90
46490;DHT22;32204;49.160;8.580;2022-07-29T08:07:25;25.90;1.00
46490;DHT22;32204;49.160;8.580;2022-07-29T08:09:50;25.90;1.00
46490;DHT22;32204;49.160;8.580;2022-07-29T08:12:16;26.00;94.10
46490;DHT22;32204;49.160;8.580;2022-07-29T08:14:42;26.30;78.70
46490;DHT22;32204;49.160;8.580;2022-07-29T08:17:07;26.40;1.00
46490;DHT22;32204;49.160;8.580;2022-07-29T08:19:33;26.50;99.90
46490;DHT22;32204;49.160;8.580;2022-07-29T08:21:59;26.80;99.90
46490;DHT22;32204;49.160;8.580;2022-07-29T08:24:25;26.80;99.90
46490;DHT22;32204;49.160;8.580;2022-07-29T08:27:12;26.60;99.90
46490;DHT22;32204;49.160;8.580;2022-07-29T08:29:38;26.70;99.90
46490;DHT22;32204;49.160;8.580;2022-07-29T08:32:05;26.70;99.90
46490;DHT22;32204;49.160;8.580;2022-07-29T08:34:31;26.80;99.90
46490;DHT22;32204;49.160;8.580;2022-07-29T08:36:57;26.80;99.90
46490;DHT22;32204;49.160;8.580;2022-07-29T08:39:23;26.80;99.90
46490;DHT22;32204;49.160;8.580;2022-07-29T08:41:49;26.70;99.90
46490;DHT22;32204;49.160;8.580;2022-07-29T08:44:17;26.60;1.00
46490;DHT22;32204;49.160;8.580;2022-07-29T08:46:43;26.50;1.00
46490;DHT22;32204;49.160;8.580;2022-07-29T08:49:09;26.80;49.40
46490;DHT22;32204;49.160;8.580;2022-07-29T08:51:36;27.00;1.00
46490;DHT22;32204;49.160;8.580;2022-07-29T08:54:02;26.90;99.90
46490;DHT22;32204;49.160;8.580;2022-07-29T08:56:29;27.10;99.90
46490;DHT22;32204;49.160;8.580;2022-07-29T08:58:58;27.10;99.90
46490;DHT22;32204;49.160;8.580;2022-07-29T09:01:25;27.00;99.90
46490;DHT22;32204;49.160;8.580;2022-07-29T09:03:55;27.20;99.90
46490;DHT22;32204;49.160;8.580;2022-07-29T09:06:22;27.40;1.00
46490;DHT22;32204;49.160;8.580;2022-07-29T09:08:51;27.30;99.90
46490;DHT22;32204;49.160;8.580;2022-07-29T09:11:17;27.50;99.90
46490;DHT22;32204;49.160;8.580;2022-07-29T09:13:42;27.70;99.90
46490;DHT22;32204;49.160;8.580;2022-07-29T09:16:08;27.50;1.00
46490;DHT22;32204;49.160;8.580;2022-07-29T09:18:42;27.40;1.00
46490;DHT22;32204;49.160;8.580;2022-07-29T09:21:13;27.20;1.00
46490;DHT22;32204;49.160;8.580;2022-07-29T09:24:09;27.10;36.80
46490;DHT22;32204;49.160;8.580;2022-07-29T09:26:40;27.00;99.90
46490;DHT22;32204;49.160;8.580;2022-07-29T09:29:14;26.90;1.00
46490;DHT22;32204;49.160;8.580;2022-07-29T09:31:42;27.00;1.00
46490;DHT22;32204;49.160;8.580;2022-07-29T09:34:09;27.10;1.00
46490;DHT22;32204;49.160;8.580;2022-07-29T09:36:43;27.20;1.00
46490;DHT22;32204;49.160;8.580;2022-07-29T09:39:09;27.20;99.90
46490;DHT22;32204;49.160;8.580;2022-07-29T09:41:50;27.40;99.90
46490;DHT22;32204;49.160;8.580;2022-07-29T09:44:18;27.50;1.00
46490;DHT22;32204;49.160;8.580;2022-07-29T09:46:58;27.80;1.00
46490;DHT22;32204;49.160;8.580;2022-07-29T09:49:24;27.70;99.90
46490;DHT22;32204;49.160;8.580;2022-07-29T09:52:08;27.90;99.90
46490;DHT22;32204;49.160;8.580;2022-07-29T09:54:34;27.80;84.50
46490;DHT22;32204;49.160;8.580;2022-07-29T09:57:09;27.90;1.00
46490;DHT22;32204;49.160;8.580;2022-07-29T09:59:38;28.00;1.00
46490;DHT22;32204;49.160;8.580;2022-07-29T10:02:14;27.80;1.00
46490;DHT22;32204;49.160;8.580;2022-07-29T10:04:41;27.80;1.00
46490;DHT22;32204;49.160;8.580;2022-07-29T10:07:08;27.60;1.00
46490;DHT22;32204;49.160;8.580;2022-07-29T10:09:34;27.70;1.00
46490;DHT22;32204;49.160;8.580;2022-07-29T10:12:05;27.90;1.00
46490;DHT22;32204;49.160;8.580;2022-07-29T10:14:32;27.70;1.00
46490;DHT22;32204;49.160;8.580;2022-07-29T10:17:03;28.00;1.00
46490;DHT22;32204;49.160;8.580;2022-07-29T10:19:29;28.10;1.00
46490;DHT22;32204;49.160;8.580;2022-07-29T10:21:57;28.20;1.00
46490;DHT22;32204;49.160;8.580;2022-07-29T10:24:29;28.10;1.00
46490;DHT22;32204;49.160;8.580;2022-07-29T10:26:56;28.10;99.90
46490;DHT22;32204;49.160;8.580;2022-07-29T10:29:23;28.20;99.90
46490;DHT22;32204;49.160;8.580;2022-07-29T10:32:08;28.10;99.90
46490;DHT22;32204;49.160;8.580;2022-07-29T10:38:02;28.10;99.90
46490;DHT22;32204;49.160;8.580;2022-07-29T10:40:57;28.40;99.90
46490;DHT22;32204;49.160;8.580;2022-07-29T10:43:46;28.50;99.90
46490;DHT22;32204;49.160;8.580;2022-07-29T10:46:13;28.70;99.90
46490;DHT22;32204;49.160;8.580;2022-07-29T10:57:21;29.20;99.90
46490;DHT22;32204;49.160;8.580;2022-07-29T11:05:06;29.50;99.90
46490;DHT22;32204;49.160;8.580;2022-07-29T11:07:34;29.30;99.90
46490;DHT22;32204;49.160;8.580;2022-07-29T11:12:45;29.10;83.20
46490;DHT22;32204;49.160;8.580;2022-07-29T11:15:14;29.30;80.50
46490;DHT22;32204;49.160;8.580;2022-07-29T11:20:39;29.60;90.80
46490;DHT22;32204;49.160;8.580;2022-07-29T11:23:19;29.80;71.70
46490;DHT22;32204;49.160;8.580;2022-07-29T11:25:54;30.20;66.10
46490;DHT22;32204;49.160;8.580;2022-07-29T11:28:32;30.00;30.20
46490;DHT22;32204;49.160;8.580;2022-07-29T11:30:59;29.70;7.50
46490;DHT22;32204;49.160;8.580;2022-07-29T11:33:33;29.60;10.50
46490;DHT22;32204;49.160;8.580;2022-07-29T11:36:10;29.80;57.40
46490;DHT22;32204;49.160;8.580;2022-07-29T11:38:36;30.10;35.80
46490;DHT22;32204;49.160;8.580;2022-07-29T11:41:21;30.20;25.90
46490;DHT22;32204;49.160;8.580;2022-07-29T11:43:53;30.30;27.60
46490;DHT22;32204;49.160;8.580;2022-07-29T11:49:07;30.10;1.00
46490;DHT22;32204;49.160;8.580;2022-07-29T11:51:34;30.20;2.60
46490;DHT22;32204;49.160;8.580;2022-07-29T11:54:01;30.40;1.00
46490;DHT22;32204;49.160;8.580;2022-07-29T11:56:31;30.10;1.00
46490;DHT22;32204;49.160;8.580;2022-07-29T11:59:15;30.30;1.00
46490;DHT22;32204;49.160;8.580;2022-07-29T12:01:55;30.00;1.00
46490;DHT22;32204;49.160;8.580;2022-07-29T12:04:21;30.00;1.00
46490;DHT22;32204;49.160;8.580;2022-07-29T12:06:55;30.10;1.00
46490;DHT22;32204;49.160;8.580;2022-07-29T12:09:23;30.20;1.00
46490;DHT22;32204;49.160;8.580;2022-07-29T12:11:58;30.50;1.00
46490;DHT22;32204;49.160;8.580;2022-07-29T12:14:31;30.50;1.00
46490;DHT22;32204;49.160;8.580;2022-07-29T12:16:58;30.50;1.00
46490;DHT22;32204;49.160;8.580;2022-07-29T12:19:25;30.60;1.00
46490;DHT22;32204;49.160;8.580;2022-07-29T12:21:52;30.50;1.00
46490;DHT22;32204;49.160;8.580;2022-07-29T12:24:18;30.10;1.00
46490;DHT22;32204;49.160;8.580;2022-07-29T12:26:51;30.00;1.00
46490;DHT22;32204;49.160;8.580;2022-07-29T12:29:18;30.00;1.00
46490;DHT22;32204;49.160;8.580;2022-07-29T12:31:44;29.80;1.00
46490;DHT22;32204;49.160;8.580;2022-07-29T12:34:12;29.70;1.00
46490;DHT22;32204;49.160;8.580;2022-07-29T12:36:39;29.50;1.00
46490;DHT22;32204;49.160;8.580;2022-07-29T12:39:05;29.40;1.00
46490;DHT22;32204;49.160;8.580;2022-07-29T12:41:30;29.40;1.00
46490;DHT22;32204;49.160;8.580;2022-07-29T12:43:56;29.40;1.00
46490;DHT22;32204;49.160;8.580;2022-07-29T12:46:22;29.40;1.00
46490;DHT22;32204;49.160;8.580;2022-07-29T12:48:51;29.40;1.00
46490;DHT22;32204;49.160;8.580;2022-07-29T12:51:39;29.20;1.00
46490;DHT22;32204;49.160;8.580;2022-07-29T12:54:15;29.20;1.00
46490;DHT22;32204;49.160;8.580;2022-07-29T12:56:58;29.20;1.00
46490;DHT22;32204;49.160;8.580;2022-07-29T12:59:30;29.10;1.00
46490;DHT22;32204;49.160;8.580;2022-07-29T13:01:55;29.30;1.00
46490;DHT22;32204;49.160;8.580;2022-07-29T13:04:31;29.30;1.00
46490;DHT22;32204;49.160;8.580;2022-07-29T13:09:40;29.40;1.00
46490;DHT22;32204;49.160;8.580;2022-07-29T13:12:08;29.30;1.00
46490;DHT22;32204;49.160;8.580;2022-07-29T13:14:43;29.40;1.00
46490;DHT22;32204;49.160;8.580;2022-07-29T13:19:51;29.20;1.00
46490;DHT22;32204;49.160;8.580;2022-07-29T13:22:22;29.10;1.00
46490;DHT22;32204;49.160;8.580;2022-07-29T13:24:58;29.10;1.00
46490;DHT22;32204;49.160;8.580;2022-07-29T13:27:26;29.00;1.00
46490;DHT22;32204;49.160;8.580;2022-07-29T13:29:54;29.00;1.00
46490;DHT22;32204;49.160;8.580;2022-07-29T13:32:23;29.00;1.00
46490;DHT22;32204;49.160;8.580;2022-07-29T13:34:49;28.90;1.00
46490;DHT22;32204;49.160;8.580;2022-07-29T13:37:15;29.00;1.00
46490;DHT22;32204;49.160;8.580;2022-07-29T13:39:42;29.10;1.00
46490;DHT22;32204;49.160;8.580;2022-07-29T13:42:08;29.10;1.00
46490;DHT22;32204;49.160;8.580;2022-07-29T13:44:35;29.10;1.00
46490;DHT22;32204;49.160;8.580;2022-07-29T13:47:01;29.20;1.00
46490;DHT22;32204;49.160;8.580;2022-07-29T13:49:27;29.30;1.00
46490;DHT22;32204;49.160;8.580;2022-07-29T13:51:53;29.50;1.00
46490;DHT22;32204;49.160;8.580;2022-07-29T13:54:19;29.70;1.00
46490;DHT22;32204;49.160;8.580;2022-07-29T13:56:45;29.60;1.00
46490;DHT22;32204;49.160;8.580;2022-07-29T13:59:12;29.50;1.00
46490;DHT22;32204;49.160;8.580;2022-07-29T14:01:38;29.60;1.00
46490;DHT22;32204;49.160;8.580;2022-07-29T14:04:06;29.90;1.00
46490;DHT22;32204;49.160;8.580;2022-07-29T14:06:32;29.90;1.00
46490;DHT22;32204;49.160;8.580;2022-07-29T14:08:58;29.70;1.00
46490;DHT22;32204;49.160;8.580;2022-07-29T14:11:24;29.50;1.00
46490;DHT22;32204;49.160;8.580;2022-07-29T14:13:50;29.70;1.00
46490;DHT22;32204;49.160;8.580;2022-07-29T14:16:15;29.80;1.00
46490;DHT22;32204;49.160;8.580;2022-07-29T14:18:41;29.90;1.00
46490;DHT22;32204;49.160;8.580;2022-07-29T14:21:07;29.90;1.00
46490;DHT22;32204;49.160;8.580;2022-07-29T14:23:32;29.80;99.90
46490;DHT22;32204;49.160;8.580;2022-07-29T14:25:58;29.80;99.90
46490;DHT22;32204;49.160;8.580;2022-07-29T14:28:24;29.80;99.90
46490;DHT22;32204;49.160;8.580;2022-07-29T14:30:49;29.80;99.90
46490;DHT22;32204;49.160;8.580;2022-07-29T14:33:15;30.00;99.90
46490;DHT22;32204;49.160;8.580;2022-07-29T14:35:40;29.90;99.90
46490;DHT22;32204;49.160;8.580;2022-07-29T14:38:06;29.90;99.90
46490;DHT22;32204;49.160;8.580;2022-07-29T14:40:31;29.80;99.90
46490;DHT22;32204;49.160;8.580;2022-07-29T14:42:57;29.60;99.90
46490;DHT22;32204;49.160;8.580;2022-07-29T14:45:23;29.60;99.90
46490;DHT22;32204;49.160;8.580;2022-07-29T14:47:49;29.60;99.90
46490;DHT22;32204;49.160;8.580;2022-07-29T14:50:16;29.50;99.90
46490;DHT22;32204;49.160;8.580;2022-07-29T14:52:42;29.40;99.90
46490;DHT22;32204;49.160;8.580;2022-07-29T14:55:08;29.30;99.90
46490;DHT22;32204;49.160;8.580;2022-07-29T14:57:34;29.50;99.90
46490;DHT22;32204;49.160;8.580;2022-07-29T15:00:00;29.60;99.90
46490;DHT22;32204;49.160;8.580;2022-07-29T15:02:25;29.50;99.90
46490;DHT22;32204;49.160;8.580;2022-07-29T15:04:51;29.30;99.90
46490;DHT22;32204;49.160;8.580;2022-07-29T15:07:17;29.30;99.90
46490;DHT22;32204;49.160;8.580;2022-07-29T15:09:42;29.40;99.90
46490;DHT22;32204;49.160;8.580;2022-07-29T15:12:10;29.30;99.90
46490;DHT22;32204;49.160;8.580;2022-07-29T15:14:36;29.60;99.90
46490;DHT22;32204;49.160;8.580;2022-07-29T15:17:02;29.80;99.90
46490;DHT22;32204;49.160;8.580;2022-07-29T15:19:28;30.00;99.90
46490;DHT22;32204;49.160;8.580;2022-07-29T15:21:54;30.10;99.90
46490;DHT22;32204;49.160;8.580;2022-07-29T15:24:19;30.10;99.90
46490;DHT22;32204;49.160;8.580;2022-07-29T15:26:46;30.10;99.90
46490;DHT22;32204;49.160;8.580;2022-07-29T15:29:12;30.00;99.90
46490;DHT22;32204;49.160;8.580;2022-07-29T15:31:38;29.90;99.90
46490;DHT22;32204;49.160;8.580;2022-07-29T15:34:07;29.70;99.90
46490;DHT22;32204;49.160;8.580;2022-07-29T15:36:32;29.70;99.90
46490;DHT22;32204;49.160;8.580;2022-07-29T15:38:58;29.90;99.90
46490;DHT22;32204;49.160;8.580;2022-07-29T15:41:24;30.00;99.90
46490;DHT22;32204;49.160;8.580;2022-07-29T15:43:49;30.10;99.90
46490;DHT22;32204;49.160;8.580;2022-07-29T15:46:18;30.10;99.90
46490;DHT22;32204;49.160;8.580;2022-07-29T15:49:04;30.30;99.90
46490;DHT22;32204;49.160;8.580;2022-07-29T15:51:29;30.30;99.90
46490;DHT22;32204;49.160;8.580;2022-07-29T15:53:55;30.30;99.90
46490;DHT22;32204;49.160;8.580;2022-07-29T15:56:22;30.30;99.90
46490;DHT22;32204;49.160;8.580;2022-07-29T15:58:47;30.20;99.90
46490;DHT22;32204;49.160;8.580;2022-07-29T16:01:13;30.40;99.90
46490;DHT22;32204;49.160;8.580;2022-07-29T16:03:39;30.20;99.90
46490;DHT22;32204;49.160;8.580;2022-07-29T16:06:04;30.20;99.90
46490;DHT22;32204;49.160;8.580;2022-07-29T16:08:30;30.10;99.90
46490;DHT22;32204;49.160;8.580;2022-07-29T16:10:56;30.20;99.90
46490;DHT22;32204;49.160;8.580;2022-07-29T16:13:21;30.30;99.90
46490;DHT22;32204;49.160;8.580;2022-07-29T16:15:47;30.30;99.90
46490;DHT22;32204;49.160;8.580;2022-07-29T16:18:13;29.90;99.90
46490;DHT22;32204;49.160;8.580;2022-07-29T16:20:40;29.90;99.90
46490;DHT22;32204;49.160;8.580;2022-07-29T16:23:06;29.80;99.90
46490;DHT22;32204;49.160;8.580;2022-07-29T16:25:34;29.80;99.90
46490;DHT22;32204;49.160;8.580;2022-07-29T16:28:00;29.70;99.90
46490;DHT22;32204;49.160;8.580;2022-07-29T16:30:25;29.50;99.90